createdAt,value
2018-05-07T00:00:06.195Z,26.4
2018-05-07T00:00:56.240Z,26.4
2018-05-07T00:01:46.541Z,26.4
2018-05-07T00:02:36.334Z,26.4
2018-05-07T00:03:26.200Z,26.4
2018-05-07T00:04:16.210Z,26.4
2018-05-07T00:05:06.840Z,26.4
2018-05-07T00:05:58.196Z,26.4
2018-05-07T00:06:46.931Z,26.4
2018-05-07T00:07:36.850Z,26.4
2018-05-07T00:08:26.213Z,26.4
2018-05-07T00:09:17.589Z,26.4
2018-05-07T00:10:06.690Z,26.4
2018-05-07T00:10:57.292Z,26.4
2018-05-07T00:11:48.211Z,26.4
2018-05-07T00:12:36.890Z,26.4
2018-05-07T00:13:27.228Z,26.4
2018-05-07T00:14:17.025Z,26.5
2018-05-07T00:15:07.572Z,26.5
2018-05-07T00:15:57.124Z,26.4
2018-05-07T00:16:47.428Z,26.5
2018-05-07T00:17:37.196Z,26.5
2018-05-07T00:18:27.586Z,26.5
2018-05-07T00:19:17.648Z,26.5
2018-05-07T00:20:07.691Z,26.5
2018-05-07T00:20:57.455Z,26.5
2018-05-07T00:21:47.273Z,26.5
2018-05-07T00:22:37.320Z,26.5
2018-05-07T00:23:28.249Z,26.5
2018-05-07T00:24:18.012Z,26.5
2018-05-07T00:25:07.819Z,26.5
2018-05-07T00:25:57.879Z,26.5
2018-05-07T00:26:47.984Z,26.5
2018-05-07T00:27:38.394Z,26.5
2018-05-07T00:28:28.721Z,26.5
2018-05-07T00:29:18.685Z,26.5
2018-05-07T00:30:07.651Z,26.5
2018-05-07T00:30:58.304Z,26.6
2018-05-07T00:31:48.716Z,26.6
2018-05-07T00:32:38.691Z,26.5
2018-05-07T00:33:28.477Z,26.5
2018-05-07T00:34:18.309Z,26.6
2018-05-07T00:35:09.042Z,26.5
2018-05-07T00:35:59.188Z,26.6
2018-05-07T00:36:48.733Z,26.6
2018-05-07T00:37:39.331Z,26.6
2018-05-07T00:38:28.918Z,26.6
2018-05-07T00:39:19.455Z,26.5
2018-05-07T00:40:08.697Z,26.6
2018-05-07T00:40:59.583Z,26.6
2018-05-07T00:41:49.386Z,26.6
2018-05-07T00:42:39.185Z,26.5
2018-05-07T00:43:29.295Z,26.6
2018-05-07T00:44:19.848Z,26.6
2018-05-07T00:45:09.355Z,26.6
2018-05-07T00:45:58.847Z,26.6
2018-05-07T00:46:50.061Z,26.6
2018-05-07T00:47:40.106Z,26.6
2018-05-07T00:48:29.581Z,26.6
2018-05-07T00:49:20.184Z,26.6
2018-05-07T00:50:10.245Z,26.6
2018-05-07T00:51:00.101Z,26.6
2018-05-07T00:51:49.863Z,26.6
2018-05-07T00:52:40.486Z,26.6
2018-05-07T00:53:30.619Z,26.6
2018-05-07T00:54:20.324Z,26.6
2018-05-07T00:55:09.841Z,26.6
2018-05-07T00:56:00.473Z,26.6
2018-05-07T00:56:50.800Z,26.6
2018-05-07T00:57:40.614Z,26.6
2018-05-07T00:58:30.939Z,26.6
2018-05-07T00:59:20.428Z,26.6
2018-05-07T01:00:10.214Z,26.6
2018-05-07T01:01:00.883Z,26.6
2018-05-07T01:01:50.629Z,26.6
2018-05-07T01:02:41.254Z,26.6
2018-05-07T01:03:31.057Z,26.6
2018-05-07T01:04:21.106Z,26.6
2018-05-07T01:05:10.899Z,26.6
2018-05-07T01:06:00.982Z,26.6
2018-05-07T01:06:50.791Z,26.6
2018-05-07T01:07:41.343Z,26.6
2018-05-07T01:08:31.725Z,26.6
2018-05-07T01:09:21.484Z,26.6
2018-05-07T01:10:11.285Z,26.6
2018-05-07T01:11:01.332Z,26.6
2018-05-07T01:11:51.137Z,26.6
2018-05-07T01:12:42.232Z,26.6
2018-05-07T01:13:32.086Z,26.6
2018-05-07T01:14:21.887Z,26.6
2018-05-07T01:15:11.946Z,26.6
2018-05-07T01:16:02.255Z,26.6
2018-05-07T01:16:52.082Z,26.6
2018-05-07T01:17:41.868Z,26.6
2018-05-07T01:18:31.910Z,26.6
2018-05-07T01:19:21.998Z,26.6
2018-05-07T01:20:12.030Z,26.6
2018-05-07T01:21:02.640Z,26.6
2018-05-07T01:21:52.221Z,26.6
2018-05-07T01:22:42.782Z,26.6
2018-05-07T01:23:32.836Z,26.6
2018-05-07T01:24:22.743Z,26.6
2018-05-07T01:25:12.735Z,26.6
2018-05-07T01:26:02.782Z,26.6
2018-05-07T01:26:52.283Z,26.6
2018-05-07T01:27:42.971Z,26.6
2018-05-07T01:28:32.708Z,26.6
2018-05-07T01:29:23.052Z,26.6
2018-05-07T01:30:13.128Z,26.6
2018-05-07T01:31:02.899Z,26.6
2018-05-07T01:31:52.405Z,26.6
2018-05-07T01:32:43.312Z,26.6
2018-05-07T01:33:33.408Z,26.6
2018-05-07T01:34:23.140Z,26.6
2018-05-07T01:35:13.510Z,26.6
2018-05-07T01:36:03.582Z,26.6
2018-05-07T01:36:53.648Z,26.6
2018-05-07T01:37:43.672Z,26.6
2018-05-07T01:38:33.798Z,26.6
2018-05-07T01:39:23.815Z,26.6
2018-05-07T01:40:14.155Z,26.6
2018-05-07T01:41:04.207Z,26.6
2018-05-07T01:41:54.006Z,26.7
2018-05-07T01:42:44.376Z,26.6
2018-05-07T01:43:33.903Z,26.6
2018-05-07T01:44:23.971Z,26.6
2018-05-07T01:45:14.598Z,26.6
2018-05-07T01:46:04.581Z,26.7
2018-05-07T01:46:54.379Z,26.7
2018-05-07T01:47:44.416Z,26.7
2018-05-07T01:48:34.836Z,26.7
2018-05-07T01:49:24.590Z,26.7
2018-05-07T01:50:14.944Z,26.6
2018-05-07T01:51:05.077Z,26.7
2018-05-07T01:51:55.110Z,26.7
2018-05-07T01:52:45.126Z,26.7
2018-05-07T01:53:34.929Z,26.7
2018-05-07T01:54:25.291Z,26.7
2018-05-07T01:55:14.499Z,26.7
2018-05-07T01:56:04.820Z,26.7
2018-05-07T01:56:55.183Z,26.7
2018-05-07T01:57:45.539Z,26.7
2018-05-07T01:58:35.290Z,26.7
2018-05-07T01:59:25.357Z,26.7
2018-05-07T02:00:15.122Z,26.7
2018-05-07T02:01:05.485Z,26.7
2018-05-07T02:01:55.545Z,26.7
2018-05-07T02:02:45.630Z,26.7
2018-05-07T02:03:35.422Z,26.7
2018-05-07T02:04:25.749Z,26.7
2018-05-07T07:27:03.883Z,24.3
2018-05-07T07:27:54.250Z,24.3
2018-05-07T07:28:44.293Z,24.3
2018-05-07T07:29:34.328Z,24.3
2018-05-07T07:30:24.402Z,24.3
2018-05-07T07:31:14.472Z,24.3
2018-05-07T07:32:04.494Z,24.3
2018-05-07T07:32:54.615Z,24.3
2018-05-07T07:33:44.254Z,24.3
2018-05-07T07:34:33.866Z,24.3
2018-05-07T07:35:24.822Z,24.3
2018-05-07T07:36:14.839Z,24.3
2018-05-07T07:37:04.918Z,24.3
2018-05-07T07:37:54.948Z,24.3
2018-05-07T07:38:43.957Z,24.3
2018-05-07T07:39:35.682Z,24.3
2018-05-07T07:40:25.167Z,24.3
2018-05-07T07:41:14.399Z,24.3
2018-05-07T07:42:05.098Z,24.3
2018-05-07T07:42:54.827Z,24.3
2018-05-07T07:43:45.209Z,24.3
2018-05-07T07:44:35.524Z,24.3
2018-05-07T07:45:24.734Z,24.3
2018-05-07T07:46:15.601Z,24.3
2018-05-07T07:47:06.479Z,24.3
2018-05-07T07:47:55.734Z,24.3
2018-05-07T07:48:45.552Z,24.3
2018-05-07T07:49:35.911Z,24.3
2018-05-07T07:50:25.401Z,24.3
2018-05-07T07:51:15.453Z,24.3
2018-05-07T07:52:05.437Z,24.3
2018-05-07T07:52:56.144Z,24.3
2018-05-07T07:53:46.314Z,24.3
2018-05-07T07:54:35.726Z,24.3
2018-05-07T07:55:25.473Z,24.3
2018-05-07T07:56:16.402Z,24.3
2018-05-07T07:57:05.639Z,24.3
2018-05-07T07:57:55.964Z,24.3
2018-05-07T07:58:45.209Z,24.3
2018-05-07T07:59:36.150Z,24.3
2018-05-07T08:00:25.613Z,24.3
2018-05-07T08:01:16.844Z,24.3
2018-05-07T08:02:06.925Z,24.3
2018-05-07T08:02:56.088Z,24.3
2018-05-07T08:03:46.145Z,24.3
2018-05-07T08:04:36.249Z,24.3
2018-05-07T08:05:26.665Z,24.3
2018-05-07T08:06:16.177Z,24.3
2018-05-07T08:07:06.443Z,24.3
2018-05-07T08:07:56.494Z,24.3
2018-05-07T08:08:46.553Z,24.3
2018-05-07T08:09:37.489Z,24.3
2018-05-07T08:10:27.566Z,24.3
2018-05-07T08:11:17.319Z,24.3
2018-05-07T08:12:06.891Z,24.3
2018-05-07T08:12:57.235Z,24.3
2018-05-07T08:13:47.279Z,24.3
2018-05-07T08:14:37.274Z,24.3
2018-05-07T08:15:27.595Z,24.3
2018-05-07T08:16:17.991Z,24.3
2018-05-07T08:17:08.100Z,24.3
2018-05-07T08:17:58.107Z,24.4
2018-05-07T08:18:47.319Z,30.3
2018-05-07T08:19:38.167Z,30.8
2018-05-07T08:20:28.021Z,33.4
2018-05-07T08:21:17.850Z,33.8
2018-05-07T08:22:07.911Z,33.1
2018-05-07T08:22:58.239Z,31.2
2018-05-07T08:23:48.565Z,28.8
2018-05-07T08:24:38.429Z,27.3
2018-05-07T08:25:28.678Z,25.9
2018-05-07T08:26:17.899Z,27.5
2018-05-07T08:27:08.240Z,28.6
2018-05-07T08:27:58.896Z,29.7
2018-05-07T08:28:48.965Z,30.3
2018-05-07T08:29:38.758Z,30.6
2018-05-07T08:30:29.839Z,30.4
2018-05-07T08:31:18.560Z,30.3
2018-05-07T08:32:08.916Z,30.2
2018-05-07T08:32:59.342Z,30.3
2018-05-07T08:33:49.079Z,30.4
2018-05-07T08:34:38.905Z,30.5
2018-05-07T08:35:29.453Z,30.6
2018-05-07T08:36:19.290Z,30.6
2018-05-07T08:37:09.281Z,30.7
2018-05-07T08:37:59.868Z,30.8
2018-05-07T08:38:49.719Z,30.9
2018-05-07T08:39:39.826Z,31
2018-05-07T08:40:29.012Z,31.1
2018-05-07T08:41:19.904Z,31.3
2018-05-07T08:42:09.396Z,31.4
2018-05-07T08:43:00.032Z,31.6
2018-05-07T08:43:50.119Z,31.7
2018-05-07T08:44:39.861Z,31.9
2018-05-07T08:45:29.671Z,32.2
2018-05-07T08:46:19.716Z,32.4
2018-05-07T08:47:10.363Z,32.7
2018-05-07T08:48:00.450Z,32.9
2018-05-07T08:48:49.639Z,32.9
2018-05-07T08:49:40.373Z,33.1
2018-05-07T08:50:30.106Z,33.2
2018-05-07T08:51:20.655Z,33.3
2018-05-07T08:52:10.466Z,33.4
2018-05-07T08:53:01.179Z,33.4
2018-05-07T08:53:50.610Z,33.6
2018-05-07T08:54:40.965Z,33.6
2018-05-07T08:55:31.000Z,33.7
2018-05-07T08:56:21.086Z,33.8
2018-05-07T08:57:10.640Z,33.9
2018-05-07T08:58:00.939Z,34
2018-05-07T08:58:50.705Z,34.1
2018-05-07T08:59:40.867Z,34.2
2018-05-07T09:00:30.561Z,34.3
2018-05-07T09:01:21.481Z,34.3
2018-05-07T09:02:12.204Z,34.4
2018-05-07T09:03:01.053Z,34.6
2018-05-07T09:03:51.192Z,34.6
2018-05-07T09:04:41.485Z,34.8
2018-05-07T09:05:31.798Z,34.9
2018-05-07T09:06:20.444Z,34.9
2018-05-07T09:07:11.371Z,35.1
2018-05-07T09:08:02.337Z,35.1
2018-05-07T09:08:51.774Z,35.2
2018-05-07T09:09:42.121Z,35.3
2018-05-07T09:10:31.910Z,35.4
2018-05-07T09:11:22.263Z,35.4
2018-05-07T09:12:12.076Z,35.5
2018-05-07T09:13:01.886Z,35.6
2018-05-07T09:13:51.632Z,35.6
2018-05-07T09:14:41.220Z,35.8
2018-05-07T09:15:31.490Z,35.8
2018-05-07T09:16:22.185Z,35.9
2018-05-07T09:17:12.168Z,36
2018-05-07T09:18:02.794Z,36.1
2018-05-07T09:18:52.564Z,36.2
2018-05-07T09:19:42.927Z,36.3
2018-05-07T09:20:32.196Z,36.3
2018-05-07T09:21:22.786Z,36.4
2018-05-07T09:22:12.570Z,36.5
2018-05-07T09:23:02.601Z,36.6
2018-05-07T09:23:52.797Z,36.7
2018-05-07T09:24:43.490Z,36.8
2018-05-07T09:25:33.113Z,36.8
2018-05-07T09:26:22.949Z,36.9
2018-05-07T09:27:12.976Z,37
2018-05-07T09:28:02.186Z,37.1
2018-05-07T09:28:53.729Z,37.2
2018-05-07T09:29:43.721Z,37.3
2018-05-07T09:30:33.216Z,37.3
2018-05-07T09:31:23.743Z,37.4
2018-05-07T09:32:13.070Z,37.5
2018-05-07T09:33:03.985Z,37.6
2018-05-07T09:33:53.217Z,37.6
2018-05-07T09:34:44.115Z,37.8
2018-05-07T09:35:34.151Z,37.8
2018-05-07T09:36:24.204Z,37.9
2018-05-07T09:37:14.025Z,37.9
2018-05-07T09:38:03.495Z,38.1
2018-05-07T09:38:54.442Z,38.1
2018-05-07T09:39:44.481Z,38.2
2018-05-07T09:40:34.554Z,38.3
2018-05-07T09:41:24.646Z,38.3
2018-05-07T09:42:14.686Z,38.4
2018-05-07T09:43:05.022Z,38.4
2018-05-07T09:43:54.818Z,38.6
2018-05-07T09:44:44.610Z,38.6
2018-05-07T09:45:34.645Z,38.7
2018-05-07T09:46:24.722Z,38.8
2018-05-07T09:47:15.080Z,38.8
2018-05-07T09:48:04.862Z,38.9
2018-05-07T09:48:55.326Z,38.9
2018-05-07T09:49:45.300Z,39
2018-05-07T09:50:34.520Z,39.1
2018-05-07T09:51:25.404Z,39.1
2018-05-07T09:52:15.469Z,39.2
2018-05-07T09:53:05.538Z,39.3
2018-05-07T09:53:55.307Z,39.3
2018-05-07T09:54:45.106Z,39.4
2018-05-07T09:55:35.165Z,39.4
2018-05-07T09:56:25.792Z,39.5
2018-05-07T09:57:15.843Z,39.6
2018-05-07T09:58:05.953Z,39.6
2018-05-07T09:58:56.056Z,39.6
2018-05-07T09:59:46.036Z,39.7
2018-05-07T10:00:35.374Z,39.7
2018-05-07T10:01:25.895Z,39.7
2018-05-07T10:02:15.982Z,39.8
2018-05-07T10:03:06.331Z,39.8
2018-05-07T10:03:56.400Z,39.8
2018-05-07T10:04:46.169Z,39.8
2018-05-07T10:05:36.015Z,39.8
2018-05-07T10:06:26.398Z,39.8
2018-05-07T10:07:16.665Z,39.7
2018-05-07T10:08:05.861Z,39.7
2018-05-07T10:08:56.511Z,39.7
2018-05-07T10:09:46.852Z,39.4
2018-05-07T10:10:36.355Z,39.3
2018-05-07T10:11:26.417Z,39.1
2018-05-07T10:12:17.034Z,39.1
2018-05-07T10:13:06.523Z,38.6
2018-05-07T10:13:56.637Z,38.3
2018-05-07T10:14:47.222Z,38.3
2018-05-07T10:15:37.370Z,38.3
2018-05-07T10:16:27.107Z,38.3
2018-05-07T10:17:17.158Z,38.2
2018-05-07T10:18:07.227Z,38.1
2018-05-07T10:18:57.577Z,38.1
2018-05-07T10:19:46.880Z,38.1
2018-05-07T10:20:37.439Z,38.1
2018-05-07T10:21:27.777Z,38.1
2018-05-07T10:22:17.276Z,38.1
2018-05-07T10:23:07.454Z,38.2
2018-05-07T10:23:56.732Z,38.2
2018-05-07T10:24:47.259Z,38.3
2018-05-07T10:25:37.029Z,38.3
2018-05-07T10:26:27.661Z,38.3
2018-05-07T10:27:17.425Z,38.3
2018-05-07T10:28:05.864Z,38.3
2018-05-07T10:28:57.701Z,38.3
2018-05-07T10:29:47.381Z,38.3
2018-05-07T10:30:37.991Z,38.4
2018-05-07T10:31:28.068Z,38.4
2018-05-07T10:32:18.086Z,38.5
2018-05-07T10:33:08.436Z,38.6
2018-05-07T10:33:58.748Z,38.6
2018-05-07T10:34:48.567Z,38.7
2018-05-07T10:35:38.568Z,38.8
2018-05-07T10:36:28.183Z,38.8
2018-05-07T10:37:18.713Z,38.8
2018-05-07T10:38:08.794Z,38.9
2018-05-07T10:38:58.281Z,38.9
2018-05-07T10:39:48.914Z,39.1
2018-05-07T10:40:37.945Z,39.2
2018-05-07T10:41:28.479Z,39.3
2018-05-07T10:42:19.376Z,39.4
2018-05-07T10:43:08.039Z,39.4
2018-05-07T10:43:59.359Z,39.4
2018-05-07T10:44:49.574Z,39.4
2018-05-07T10:45:39.653Z,39.4
2018-05-07T10:46:29.743Z,39.4
2018-05-07T10:47:19.821Z,39.3
2018-05-07T10:48:09.581Z,39.3
2018-05-07T10:48:59.971Z,39.3
2018-05-07T10:49:49.753Z,39.3
2018-05-07T10:50:39.240Z,39.3
2018-05-07T10:51:29.583Z,39.3
2018-05-07T10:52:19.649Z,39.3
2018-05-07T10:53:10.288Z,39.3
2018-05-07T10:53:58.942Z,39.3
2018-05-07T10:54:49.827Z,39.3
2018-05-07T10:55:40.155Z,39.3
2018-05-07T10:56:30.235Z,39.3
2018-05-07T10:57:19.423Z,39.4
2018-05-07T10:58:10.641Z,39.4
2018-05-07T10:59:00.157Z,39.4
2018-05-07T10:59:50.518Z,39.5
2018-05-07T11:00:40.521Z,39.6
2018-05-07T11:01:30.132Z,39.6
2018-05-07T11:02:20.671Z,39.6
2018-05-07T11:03:10.457Z,39.6
2018-05-07T11:04:00.530Z,39.7
2018-05-07T11:04:50.613Z,39.7
2018-05-07T11:05:41.424Z,39.8
2018-05-07T11:06:31.289Z,39.8
2018-05-07T11:07:21.874Z,39.8
2018-05-07T11:08:11.442Z,39.8
2018-05-07T11:09:00.337Z,39.8
2018-05-07T11:09:51.288Z,39.8
2018-05-07T11:10:41.589Z,39.8
2018-05-07T11:11:31.676Z,39.8
2018-05-07T11:12:21.586Z,39.8
2018-05-07T11:13:11.239Z,39.8
2018-05-07T11:14:01.596Z,39.8
2018-05-07T11:14:51.718Z,39.8
2018-05-07T11:15:41.163Z,39.8
2018-05-07T11:16:31.606Z,39.8
2018-05-07T11:17:22.211Z,39.8
2018-05-07T11:18:11.995Z,39.8
2018-05-07T11:19:02.008Z,39.8
2018-05-07T11:19:53.160Z,39.8
2018-05-07T11:20:41.845Z,39.8
2018-05-07T11:21:32.166Z,39.8
2018-05-07T11:22:22.016Z,39.8
2018-05-07T11:23:12.615Z,39.8
2018-05-07T11:24:01.573Z,39.8
2018-05-07T11:24:51.970Z,39.8
2018-05-07T11:25:42.002Z,39.8
2018-05-07T11:26:32.368Z,39.8
2018-05-07T11:27:22.388Z,39.8
2018-05-07T11:28:12.195Z,39.8
2018-05-07T11:29:02.567Z,39.8
2018-05-07T11:29:52.609Z,39.8
2018-05-07T11:30:42.369Z,39.8
2018-05-07T11:31:33.290Z,39.8
2018-05-07T11:32:23.000Z,39.8
2018-05-07T11:33:13.068Z,39.8
2018-05-07T11:34:03.219Z,39.8
2018-05-07T11:34:53.575Z,39.8
2018-05-07T11:35:43.557Z,39.8
2018-05-07T11:36:33.631Z,39.8
2018-05-07T11:37:23.398Z,39.8
2018-05-07T11:38:13.477Z,39.8
2018-05-07T11:39:03.713Z,39.9
2018-05-07T11:39:53.627Z,39.9
2018-05-07T11:40:43.685Z,39.9
2018-05-07T11:41:33.196Z,40
2018-05-07T11:42:23.540Z,40
2018-05-07T11:43:13.602Z,40.1
2018-05-07T11:44:02.520Z,40.1
2018-05-07T11:44:52.962Z,40.2
2018-05-07T11:45:43.603Z,40.2
2018-05-07T11:46:33.863Z,40.3
2018-05-07T11:47:24.914Z,40.3
2018-05-07T11:48:14.517Z,40.4
2018-05-07T11:49:04.355Z,40.4
2018-05-07T11:49:54.129Z,40.5
2018-05-07T11:50:44.749Z,40.5
2018-05-07T11:51:34.810Z,40.6
2018-05-07T11:52:24.325Z,40.6
2018-05-07T11:53:15.883Z,40.6
2018-05-07T11:54:04.719Z,40.6
2018-05-07T11:54:54.780Z,40.7
2018-05-07T11:55:44.880Z,40.7
2018-05-07T11:56:34.434Z,40.8
2018-05-07T11:57:25.254Z,40.8
2018-05-07T11:58:14.768Z,40.8
2018-05-07T11:59:04.059Z,40.8
2018-05-07T11:59:54.884Z,40.9
2018-05-07T12:00:45.029Z,40.9
2018-05-07T12:01:35.622Z,40.9
2018-05-07T12:02:25.712Z,41
2018-05-07T12:03:14.965Z,41.1
2018-05-07T12:04:04.475Z,41.1
2018-05-07T12:04:55.289Z,41.1
2018-05-07T12:05:45.556Z,41.1
2018-05-07T12:06:35.716Z,41.1
2018-05-07T12:07:25.773Z,41.2
2018-05-07T12:08:15.272Z,41.3
2018-05-07T12:09:07.203Z,41.3
2018-05-07T12:09:55.711Z,41.4
2018-05-07T12:10:45.205Z,41.4
2018-05-07T12:11:36.152Z,41.4
2018-05-07T12:12:26.475Z,41.5
2018-05-07T12:13:15.098Z,41.6
2018-05-07T12:14:05.783Z,41.7
2018-05-07T12:14:56.051Z,41.8
2018-05-07T12:15:46.908Z,41.9
2018-05-07T12:16:36.748Z,41.9
2018-05-07T12:17:26.318Z,41.9
2018-05-07T12:18:16.878Z,42
2018-05-07T12:19:06.460Z,42.1
2018-05-07T12:19:56.735Z,41.9
2018-05-07T12:20:46.853Z,41.9
2018-05-07T12:21:37.140Z,41.9
2018-05-07T12:22:26.665Z,41.9
2018-05-07T12:23:18.133Z,41.9
2018-05-07T12:24:07.419Z,41.9
2018-05-07T12:24:56.807Z,41.9
2018-05-07T12:25:47.480Z,41.9
2018-05-07T12:26:36.704Z,42
2018-05-07T12:27:27.602Z,42.1
2018-05-07T12:28:17.447Z,42.1
2018-05-07T12:29:06.863Z,42.2
2018-05-07T12:29:57.530Z,42.3
2018-05-07T12:30:47.848Z,42.4
2018-05-07T12:31:39.133Z,42.6
2018-05-07T12:32:27.425Z,42.9
2018-05-07T12:33:17.207Z,43.2
2018-05-07T12:34:07.873Z,43.5
2018-05-07T12:34:57.348Z,43.7
2018-05-07T12:35:47.717Z,43.8
2018-05-07T12:36:38.355Z,43.8
2018-05-07T12:37:28.368Z,43.9
2018-05-07T12:38:17.897Z,44.1
2018-05-07T12:39:07.406Z,44.2
2018-05-07T12:39:58.619Z,44.2
2018-05-07T12:40:48.619Z,44.2
2018-05-07T12:41:38.698Z,44.1
2018-05-07T12:42:28.738Z,44.1
2018-05-07T12:43:18.286Z,44.2
2018-05-07T12:44:08.598Z,44.3
2018-05-07T12:44:58.137Z,44.3
2018-05-07T12:45:49.041Z,44.3
2018-05-07T12:46:38.670Z,44.4
2018-05-07T12:47:28.634Z,44.4
2018-05-07T12:48:19.226Z,44.5
2018-05-07T12:49:09.343Z,44.5
2018-05-07T12:49:59.168Z,44.6
2018-05-07T12:50:48.610Z,44.6
2018-05-07T12:51:39.233Z,44.6
2018-05-07T12:52:30.054Z,44.6
2018-05-07T12:53:19.102Z,44.6
2018-05-07T12:54:08.788Z,44.6
2018-05-07T12:54:59.024Z,44.6
2018-05-07T12:55:48.811Z,44.6
2018-05-07T12:56:39.629Z,44.6
2018-05-07T12:57:29.497Z,44.6
2018-05-07T12:58:19.546Z,44.7
2018-05-07T12:59:10.872Z,44.7
2018-05-07T12:59:59.069Z,44.8
2018-05-07T13:00:49.388Z,44.8
2018-05-07T13:01:40.040Z,44.8
2018-05-07T13:02:30.371Z,44.8
2018-05-07T13:03:20.170Z,44.9
2018-05-07T13:04:10.609Z,45
2018-05-07T13:04:59.993Z,45.1
2018-05-07T13:05:50.595Z,45.3
2018-05-07T13:06:40.397Z,45.4
2018-05-07T13:07:30.739Z,45.6
2018-05-07T13:08:19.987Z,45.8
2018-05-07T13:09:10.085Z,46
2018-05-07T13:10:00.701Z,46.2
2018-05-07T13:10:49.902Z,46.4
2018-05-07T13:11:41.262Z,46.6
2018-05-07T13:12:30.882Z,46.6
2018-05-07T13:13:20.688Z,46.8
2018-05-07T13:14:11.011Z,46.8
2018-05-07T13:15:01.062Z,46.8
2018-05-07T13:15:50.314Z,46.8
2018-05-07T13:16:41.180Z,46.8
2018-05-07T13:17:31.526Z,46.8
2018-05-07T13:18:21.464Z,46.9
2018-05-07T13:19:11.748Z,47.1
2018-05-07T13:20:01.727Z,47.2
2018-05-07T13:20:51.844Z,47.3
2018-05-07T13:21:41.868Z,47.4
2018-05-07T13:22:31.908Z,47.4
2018-05-07T13:23:21.991Z,47.5
2018-05-07T13:24:12.268Z,47.6
2018-05-07T13:25:02.007Z,47.7
2018-05-07T13:25:52.209Z,47.8
2018-05-07T13:26:41.982Z,47.8
2018-05-07T13:27:31.770Z,47.8
2018-05-07T13:28:21.288Z,47.9
2018-05-07T13:29:12.189Z,47.9
2018-05-07T13:30:02.227Z,48.1
2018-05-07T13:30:52.370Z,48.1
2018-05-07T13:31:42.383Z,47.6
2018-05-07T13:32:32.456Z,47.4
2018-05-07T13:33:22.594Z,47.4
2018-05-07T13:34:12.343Z,47.3
2018-05-07T13:35:02.682Z,46.6
2018-05-07T13:35:53.033Z,46.4
2018-05-07T13:36:42.930Z,46.4
2018-05-07T13:37:32.351Z,46.4
2018-05-07T13:38:22.650Z,46.5
2018-05-07T13:39:12.998Z,46.5
2018-05-07T13:40:03.038Z,46.5
2018-05-07T13:40:53.143Z,46.5
2018-05-07T13:41:43.481Z,46.6
2018-05-07T13:42:33.239Z,46.6
2018-05-07T13:43:23.020Z,46.7
2018-05-07T13:44:13.172Z,46.8
2018-05-07T13:45:03.715Z,46.8
2018-05-07T13:45:53.494Z,46.9
2018-05-07T13:46:43.828Z,47
2018-05-07T13:47:33.925Z,47.1
2018-05-07T13:48:24.000Z,47.1
2018-05-07T13:49:13.501Z,47.1
2018-05-07T13:50:03.829Z,47.2
2018-05-07T13:50:53.647Z,47.3
2018-05-07T13:51:44.240Z,47.3
2018-05-07T13:52:34.291Z,47.4
2018-05-07T13:53:24.433Z,47.4
2018-05-07T13:54:14.149Z,47.4
2018-05-07T13:55:04.264Z,47.4
2018-05-07T13:55:54.044Z,47.5
2018-05-07T13:56:44.790Z,47.6
2018-05-07T13:57:34.151Z,47.6
2018-05-07T13:58:24.793Z,47.6
2018-05-07T13:59:14.597Z,47.7
2018-05-07T14:00:04.894Z,47.7
2018-05-07T14:00:55.075Z,47.8
2018-05-07T14:01:44.793Z,47.8
2018-05-07T14:02:35.503Z,47.8
2018-05-07T14:03:24.601Z,47.8
2018-05-07T14:04:15.248Z,47.8
2018-05-07T14:05:05.306Z,47.8
2018-05-07T14:05:55.343Z,47.9
2018-05-07T14:06:44.873Z,47.9
2018-05-07T14:07:35.227Z,47.9
2018-05-07T14:08:25.926Z,47.9
2018-05-07T14:09:15.643Z,47.9
2018-05-07T14:10:05.177Z,47.9
2018-05-07T14:10:55.490Z,47.9
2018-05-07T14:11:45.544Z,47.9
2018-05-07T14:12:35.951Z,47.9
2018-05-07T14:13:25.424Z,47.8
2018-05-07T14:14:15.456Z,47.9
2018-05-07T14:15:05.836Z,47.9
2018-05-07T14:15:55.586Z,47.9
2018-05-07T14:16:47.166Z,47.9
2018-05-07T14:17:36.024Z,47.8
2018-05-07T14:18:26.364Z,47.8
2018-05-07T14:19:15.640Z,47.8
2018-05-07T14:20:06.246Z,47.8
2018-05-07T14:20:56.561Z,47.8
2018-05-07T14:21:46.620Z,47.8
2018-05-07T14:22:35.582Z,47.8
2018-05-07T14:23:26.773Z,47.8
2018-05-07T14:24:16.847Z,47.8
2018-05-07T14:25:06.390Z,47.8
2018-05-07T14:25:56.448Z,47.8
2018-05-07T14:26:46.999Z,47.8
2018-05-07T14:27:37.099Z,47.8
2018-05-07T14:28:26.884Z,47.8
2018-05-07T14:29:16.963Z,47.7
2018-05-07T14:30:06.744Z,47.7
2018-05-07T14:30:56.243Z,47.7
2018-05-07T14:31:46.901Z,47.6
2018-05-07T14:32:36.932Z,47.6
2018-05-07T14:33:27.008Z,47.6
2018-05-07T14:34:16.859Z,47.6
2018-05-07T14:35:07.691Z,47.6
2018-05-07T14:35:57.492Z,47.5
2018-05-07T14:36:47.263Z,47.4
2018-05-07T14:37:37.597Z,47.4
2018-05-07T14:38:27.940Z,47.3
2018-05-07T14:39:17.736Z,47.3
2018-05-07T14:40:08.099Z,47.3
2018-05-07T14:40:58.194Z,47.2
2018-05-07T14:41:45.442Z,47.1
2018-05-07T14:42:36.353Z,47.1
2018-05-07T14:43:25.858Z,46.9
2018-05-07T14:44:16.500Z,46.9
2018-05-07T14:45:06.263Z,46.9
2018-05-07T14:45:56.336Z,46.8
2018-05-07T14:46:46.106Z,46.8
2018-05-07T14:47:36.460Z,46.8
2018-05-07T14:48:26.804Z,46.8
2018-05-07T14:49:16.883Z,46.7
2018-05-07T14:50:06.720Z,46.8
2018-05-07T14:50:57.023Z,46.7
2018-05-07T14:51:46.524Z,46.7
2018-05-07T14:52:36.863Z,46.7
2018-05-07T14:53:26.387Z,46.7
2018-05-07T14:54:16.995Z,46.7
2018-05-07T14:55:07.369Z,46.7
2018-05-07T14:55:57.927Z,46.6
2018-05-07T14:56:47.462Z,46.7
2018-05-07T14:57:37.523Z,46.7
2018-05-07T14:58:27.058Z,46.7
2018-05-07T14:59:17.375Z,46.7
2018-05-07T15:00:07.738Z,46.4
2018-05-07T15:00:57.799Z,45.5
2018-05-07T15:01:47.292Z,44.9
2018-05-07T15:02:37.627Z,44.6
2018-05-07T15:03:27.983Z,44.2
2018-05-07T15:04:18.051Z,44.1
2018-05-07T15:05:08.134Z,44
2018-05-07T15:05:58.202Z,43.9
2018-05-07T15:06:47.971Z,43.6
2018-05-07T15:07:38.339Z,43.2
2018-05-07T15:08:28.383Z,42.8
2018-05-07T15:09:18.175Z,42.7
2018-05-07T15:10:07.992Z,42.6
2018-05-07T15:11:00.530Z,42.5
2018-05-07T15:11:50.027Z,42.4
2018-05-07T15:12:40.668Z,42.3
2018-05-07T15:13:30.140Z,41.8
2018-05-07T15:14:20.199Z,41.2
2018-05-07T15:15:10.559Z,40.3
2018-05-07T15:16:00.628Z,39.7
2018-05-07T15:16:50.984Z,39.2
2018-05-07T15:17:40.791Z,38.6
2018-05-07T15:18:31.118Z,37.7
2018-05-07T15:19:20.377Z,36.8
2018-05-07T15:20:11.260Z,36
2018-05-07T15:21:00.494Z,35.1
2018-05-07T15:21:51.103Z,34.5
2018-05-07T15:22:41.166Z,34.2
2018-05-07T15:23:32.000Z,34.1
2018-05-07T15:24:21.013Z,33.9
2018-05-07T15:25:11.086Z,33.3
2018-05-07T15:26:01.711Z,32.7
2018-05-07T15:26:50.473Z,32.4
2018-05-07T15:27:41.095Z,32.4
2018-05-07T15:28:31.173Z,32.4
2018-05-07T15:29:22.434Z,32.4
2018-05-07T15:30:11.754Z,32.4
2018-05-07T15:31:01.818Z,32.3
2018-05-07T15:31:52.208Z,32.3
2018-05-07T15:32:41.989Z,32.3
2018-05-07T15:33:31.461Z,32.3
2018-05-07T15:34:22.384Z,32.4
2018-05-07T15:35:12.449Z,32.4
2018-05-07T15:36:02.223Z,32.4
2018-05-07T15:36:52.322Z,32.4
2018-05-07T15:37:42.621Z,32.4
2018-05-07T15:38:32.127Z,32.5
2018-05-07T15:39:22.528Z,32.5
2018-05-07T15:40:12.570Z,32.5
2018-05-07T15:41:02.637Z,32.6
2018-05-07T15:41:52.691Z,32.6
2018-05-07T15:42:40.764Z,32.6
2018-05-07T15:43:32.871Z,32.6
2018-05-07T15:44:22.333Z,32.6
2018-05-07T15:45:13.254Z,32.6
2018-05-07T15:46:03.004Z,32.7
2018-05-07T15:46:53.376Z,32.7
2018-05-07T15:47:43.173Z,32.7
2018-05-07T15:48:33.528Z,32.7
2018-05-07T15:49:24.247Z,32.8
2018-05-07T15:50:13.070Z,32.8
2018-05-07T15:51:03.117Z,32.8
2018-05-07T15:51:53.220Z,32.8
2018-05-07T15:52:43.821Z,32.8
2018-05-07T15:53:33.859Z,32.8
2018-05-07T15:54:23.705Z,32.8
2018-05-07T15:55:13.719Z,32.8
2018-05-07T15:56:04.181Z,32.8
2018-05-07T15:56:54.180Z,32.8
2018-05-07T15:57:43.666Z,32.8
2018-05-07T15:58:34.051Z,32.8
2018-05-07T15:59:24.109Z,32.9
2018-05-07T16:00:13.585Z,32.9
2018-05-07T16:01:04.212Z,32.9
2018-05-07T16:01:54.544Z,32.9
2018-05-07T16:02:44.936Z,32.9
2018-05-07T16:03:34.099Z,32.9
2018-05-07T16:04:24.459Z,32.9
2018-05-07T16:05:14.244Z,32.9
2018-05-07T16:06:04.344Z,32.9
2018-05-07T16:06:54.960Z,32.9
2018-05-07T16:07:44.200Z,32.9
2018-05-07T16:08:35.129Z,32.9
2018-05-07T16:09:24.636Z,32.9
2018-05-07T16:10:15.187Z,33
2018-05-07T16:11:05.287Z,32.9
2018-05-07T16:11:55.422Z,32.9
2018-05-07T16:12:45.454Z,32.9
2018-05-07T16:13:35.456Z,32.9
2018-05-07T16:14:24.683Z,32.9
2018-05-07T16:15:16.347Z,32.9
2018-05-07T16:16:05.395Z,32.9
2018-05-07T16:16:55.817Z,32.9
2018-05-07T16:17:45.755Z,32.8
2018-05-07T16:18:36.198Z,32.8
2018-05-07T16:19:25.645Z,32.8
2018-05-07T16:20:15.433Z,32.8
2018-05-07T16:21:05.813Z,32.8
2018-05-07T16:21:56.947Z,32.7
2018-05-07T16:22:46.202Z,32.7
2018-05-07T16:23:38.018Z,32.6
2018-05-07T16:24:26.036Z,32.6
2018-05-07T16:25:15.845Z,32.6
2018-05-07T16:26:06.454Z,32.6
2018-05-07T16:26:56.257Z,32.6
2018-05-07T16:27:46.612Z,32.5
2018-05-07T16:28:36.619Z,32.5